Weather History for KPCZ - March, 2015

Change the Weather History Date:

Tuesday, March 24, 2015

  Actual Average (WUND) Record (WUND)
Temperature  
Mean Temperature 32 °F -  
Max Temperature 47 °F - - (-1)
Min Temperature 18 °F - - (-1)
Degree Days  
Heating Degree Days 32    
Moisture  
Dew Point 17 °F    
Average Humidity 57    
Maximum Humidity 89    
Minimum Humidity 31    
Precipitation  
Precipitation 0.00 in - - ()
Sea Level Pressure  
Sea Level Pressure 30.20 in    
Wind  
Wind Speed 4 mph (ESE)    
Max Wind Speed 15 mph    
Max Gust Speed 20 mph    
Visibility 10 miles    
Events Snow    
Averages and records for this station are not official NWS values.
T = Trace of Precipitation, MM = Missing Value Source: NWS Daily Summary

Daily Weather History Graph

Daily Weather History Graph

Search for Another Location

Airport or City:

Trip Planner

Search our weather history database for the weather conditions in past years. The results will help you decide how hot, cold, wet, or windy it might be!

Date:

Astronomy

Mar. 24, 2015 Rise Set
Actual Time 6:52 AM CDT 7:13 PM CDT
Civil Twilight 6:23 AM CDT 7:42 PM CDT
Nautical Twilight 5:49 AM CDT 8:16 PM CDT
Astronomical Twilight 5:14 AM CDT 8:51 PM CDT
Moon 9:40 AM CDT (3/24) No Moon Set
Length of Visible Light 13h 18m
Length of Day
12h 20m
Waxing Crescent, 24% of the Moon is Illuminated
Mar 24
Waxing Crescent
Mar 27
First Quarter
Apr 4
Full
Apr 11
Last Quarter
Apr 18
New

Hourly Weather History & Observations

Time (CDT) Temp. Windchill Dew Point Humidity Pressure Visibility Wind Dir Wind Speed Gust Speed Precip Events Conditions
12:15 AM 25.5 °F - 16.9 °F 70% 30.31 in 10.0 mi Calm Calm - N/A   Clear
12:35 AM 24.8 °F - 16.7 °F 71% 30.30 in 10.0 mi Calm Calm - N/A   Clear
12:55 AM 23.9 °F - 16.3 °F 73% 30.30 in 10.0 mi Calm Calm - N/A   Clear
1:15 AM 24.8 °F - 17.1 °F 72% 30.30 in 10.0 mi Calm Calm - N/A   Clear
1:35 AM 23.9 °F - 16.7 °F 74% 30.30 in 10.0 mi Calm Calm - N/A   Clear
1:55 AM 23.9 °F - 17.1 °F 75% 30.30 in 10.0 mi Calm Calm - N/A   Clear
2:15 AM 22.8 °F - 18.1 °F 82% 30.30 in 10.0 mi Calm Calm - N/A   Clear
2:35 AM 22.1 °F - 17.4 °F 82% 30.30 in 10.0 mi Calm Calm - N/A   Clear
2:55 AM 22.1 °F - 18.1 °F 85% 30.29 in 10.0 mi Calm Calm - N/A   Clear
3:15 AM 21.2 °F - 17.2 °F 85% 30.29 in 10.0 mi Calm Calm - N/A   Clear
3:35 AM 21.2 °F - 17.6 °F 86% 30.29 in 10.0 mi Calm Calm - N/A   Clear
3:55 AM 20.5 °F - 16.9 °F 86% 30.28 in 10.0 mi Calm Calm - N/A   Clear
4:15 AM 20.7 °F - 17.1 °F 86% 30.28 in 10.0 mi Calm Calm - N/A   Clear
4:35 AM 20.8 °F - 17.1 °F 85% 30.28 in 10.0 mi Calm Calm - N/A   Clear
4:55 AM 19.8 °F - 16.3 °F 87% 30.28 in 10.0 mi Calm Calm - N/A   Clear
5:15 AM 19.2 °F - 16.0 °F 87% 30.28 in 10.0 mi Calm Calm - N/A   Clear
5:35 AM 19.4 °F - 16.2 °F 87% 30.28 in 10.0 mi Calm Calm - N/A   Clear
5:55 AM 19.4 °F - 16.2 °F 87% 30.29 in 10.0 mi Calm Calm - N/A   Clear
6:15 AM 19.0 °F - 15.8 °F 87% 30.29 in 10.0 mi Calm Calm - N/A   Clear
6:35 AM 18.5 °F - 15.3 °F 87% 30.30 in 10.0 mi Calm Calm - N/A   Clear
6:55 AM 18.0 °F - 14.7 °F 87% 30.29 in 10.0 mi Calm Calm - N/A   Clear
7:15 AM 19.0 °F - 16.0 °F 88% 30.30 in 10.0 mi Calm Calm - N/A   Clear
7:35 AM 20.1 °F - 16.9 °F 87% 30.29 in 10.0 mi Calm Calm - N/A   Clear
7:55 AM 21.7 °F - 18.9 °F 89% 30.29 in 10.0 mi Calm Calm - N/A   Clear
8:15 AM 24.6 °F - 21.2 °F 87% 30.30 in 10.0 mi Calm Calm - N/A   Clear
8:35 AM 26.6 °F - 22.1 °F 83% 30.30 in 10.0 mi Calm Calm - N/A   Clear
8:55 AM 28.8 °F - 23.0 °F 79% 30.30 in 10.0 mi Calm Calm - N/A   Clear
9:15 AM 31.3 °F 26.6 °F 24.4 °F 76% 30.30 in 10.0 mi SE 4.6 mph - N/A   Clear
9:35 AM 32.4 °F 27.9 °F 24.1 °F 72% 30.29 in 10.0 mi ESE 4.6 mph - N/A   Clear
10:00 AM 34.3 °F 31.4 °F 23.0 °F 63% 30.29 in 10.0 mi East 3.5 mph - N/A   Clear
10:15 AM 35.8 °F 30.9 °F 22.8 °F 59% 30.28 in 10.0 mi SE 5.8 mph - N/A   Clear
10:35 AM 36.7 °F 29.9 °F 22.6 °F 57% 30.27 in 10.0 mi ESE 9.2 mph - N/A   Clear
10:55 AM 37.6 °F 30.0 °F 20.1 °F 49% 30.26 in 10.0 mi ESE 11.5 mph - N/A   Clear
11:15 AM 39.0 °F 32.3 °F 19.8 °F 46% 30.26 in 10.0 mi ESE 10.4 mph - N/A   Clear
11:35 AM 40.3 °F 33.4 °F 17.8 °F 40% 30.25 in 10.0 mi ESE 11.5 mph - N/A   Clear
11:55 AM 41.2 °F 35.5 °F 17.1 °F 38% 30.25 in 10.0 mi SE 9.2 mph 18.4 mph N/A   Clear
12:15 PM 42.1 °F 35.7 °F 15.8 °F 35% 30.25 in 10.0 mi ESE 11.5 mph - N/A   Clear
12:35 PM 42.8 °F 38.0 °F 17.4 °F 36% 30.25 in 10.0 mi SE 8.1 mph - N/A   Clear
12:55 PM 43.5 °F 37.9 °F 17.2 °F 35% 30.23 in 10.0 mi East 10.4 mph - N/A   Clear
1:15 PM 43.9 °F 37.9 °F 18.5 °F 36% 30.23 in 10.0 mi ESE 11.5 mph - N/A   Clear
1:35 PM 44.6 °F 38.4 °F 18.9 °F 36% 30.23 in 10.0 mi SSE 12.7 mph 17.3 mph N/A   Clear
1:55 PM 45.1 °F 40.8 °F 18.7 °F 35% 30.21 in 10.0 mi ESE 8.1 mph 16.1 mph N/A   Clear
2:15 PM 46.0 °F 40.6 °F 19.9 °F 35% 30.20 in 10.0 mi SE 11.5 mph 16.1 mph N/A   Clear
2:35 PM 46.2 °F 41.7 °F 20.1 °F 35% 30.19 in 10.0 mi SSE 9.2 mph - N/A   Clear
2:55 PM 46.4 °F 40.7 °F 20.3 °F 36% 30.18 in 10.0 mi ESE 12.7 mph 16.1 mph N/A   Clear
3:15 PM 47.1 °F - 20.3 °F 35% 30.16 in 10.0 mi ESE 15.0 mph - N/A   Clear
3:35 PM 46.4 °F 41.1 °F 18.9 °F 33% 30.16 in 10.0 mi SE 11.5 mph 18.4 mph N/A   Clear
3:55 PM 47.3 °F - 18.1 °F 31% 30.14 in 10.0 mi SE 12.7 mph 18.4 mph N/A   Clear
4:15 PM 47.1 °F - 18.0 °F 31% 30.13 in 10.0 mi ESE 13.8 mph 18.4 mph N/A   Clear
4:35 PM 45.1 °F 38.4 °F 17.8 °F 34% 30.12 in 10.0 mi East 15.0 mph 19.6 mph N/A   Clear
4:55 PM 44.6 °F 37.8 °F 16.7 °F 33% 30.10 in 10.0 mi ESE 15.0 mph 19.6 mph N/A   Clear
5:15 PM 43.7 °F 36.9 °F 15.4 °F 32% 30.11 in 10.0 mi ESE 13.8 mph 19.6 mph N/A   Clear
5:35 PM 41.9 °F 35.0 °F 15.8 °F 35% 30.10 in 10.0 mi ESE 12.7 mph 19.6 mph N/A   Clear
5:55 PM 41.2 °F 34.1 °F 15.6 °F 36% 30.12 in 10.0 mi SE 12.7 mph - N/A   Clear
6:15 PM 40.3 °F 33.0 °F 14.4 °F 35% 30.12 in 10.0 mi SE 12.7 mph - N/A   Clear
6:35 PM 39.4 °F 32.7 °F 14.9 °F 37% 30.12 in 10.0 mi ESE 10.4 mph 16.1 mph N/A   Clear
6:55 PM 37.6 °F 30.0 °F 14.9 °F 40% 30.12 in 10.0 mi ESE 11.5 mph 16.1 mph N/A   Clear
7:15 PM 36.1 °F 28.7 °F 14.0 °F 40% 30.10 in 10.0 mi ESE 10.4 mph - N/A   Clear
7:35 PM 35.1 °F 26.9 °F 12.0 °F 39% 30.10 in 10.0 mi ESE 11.5 mph - N/A   Clear
7:55 PM 34.2 °F 28.2 °F 12.4 °F 41% 30.10 in 10.0 mi ESE 6.9 mph - N/A   Clear
8:15 PM 33.4 °F 25.9 °F 12.9 °F 43% 30.10 in 10.0 mi East 9.2 mph - N/A   Clear
8:35 PM 33.3 °F 27.1 °F 12.2 °F 42% 30.09 in 10.0 mi East 6.9 mph - N/A   Clear
8:55 PM 32.9 °F 26.7 °F 12.4 °F 43% 30.08 in 10.0 mi East 6.9 mph - N/A   Clear
9:15 PM 32.9 °F 26.7 °F 10.8 °F 40% 30.07 in 10.0 mi East 6.9 mph - N/A   Clear
9:35 PM 33.1 °F 26.9 °F 9.9 °F 38% 30.06 in 10.0 mi East 6.9 mph - N/A   Clear
9:55 PM 33.3 °F 27.9 °F 10.2 °F 38% 30.05 in 10.0 mi East 5.8 mph - N/A   Mostly Cloudy
10:15 PM 33.4 °F 27.3 °F 10.8 °F 39% 30.03 in 10.0 mi ENE 6.9 mph - N/A   Overcast
10:35 PM 33.3 °F 27.9 °F 9.7 °F 37% 30.02 in 10.0 mi East 5.8 mph - N/A   Overcast
10:55 PM 33.6 °F 26.8 °F 10.2 °F 38% 30.03 in 10.0 mi ESE 8.1 mph - N/A   Overcast
11:15 PM 34.0 °F 28.0 °F 10.9 °F 38% 30.03 in 10.0 mi ESE 6.9 mph - N/A   Overcast
11:35 PM 33.3 °F 25.7 °F 14.9 °F 47% 30.02 in 7.0 mi East 9.2 mph - N/A Snow Light Snow
11:55 PM 32.0 °F 23.6 °F 20.3 °F 62% 29.98 in 3.0 mi East 10.4 mph - N/A Snow Light Snow